Time;durP1;ratioP1;P1;durP2;ratioP2;P2;SDS_P1;SDS_P2;PMS_P1;PMS_P2;Temp;Humidity;BMP_temperature;BMP_pressure;BME280_temperature;BME280_humidity;BME280_pressure;Samples;Min_cycle;Max_cycle;Signal;HPM_P1;HPM_P2
2023/01/20 04:06:36;;;;;;;;;;;0.10;99.90;;;;;;5570459;22;16013762;-89
2023/01/20 04:20:02;;;;;;;;;;;0.10;99.90;;;;;;6311711;22;19908;-90
2023/01/20 04:25:37;;;;;;;;;;;0.10;99.90;;;;;;6255812;22;19903;-93
2023/01/20 04:28:09;;;;;;;;;;;0.10;99.90;;;;;;6251920;22;19924;-88
2023/01/20 04:31:00;;;;;;;;;;;0.10;99.90;;;;;;6252392;22;19911;-94
2023/01/20 04:44:47;;;;;;;;;;;0.00;99.90;;;;;;6280346;22;19951;-92
2023/01/20 04:47:26;;;;;;;;;;;-0.10;99.90;;;;;;6231413;22;19939;-89
2023/01/20 04:50:16;;;;;;;;;;;-0.10;99.90;;;;;;6281675;22;19908;-86
2023/01/20 04:52:53;;;;;;;;;;;-0.10;99.90;;;;;;6279689;22;19938;-88
2023/01/20 05:10:13;;;;;;;;;;;-0.20;99.90;;;;;;5037141;28;19934;-93
2023/01/20 05:18:31;;;;;;;;;;;-0.20;99.90;;;;;;5027771;28;19910;-95
2023/01/20 05:21:12;;;;;;;;;;;-0.30;99.90;;;;;;5032088;28;19914;-94
2023/01/20 05:23:41;;;;;;;;;;;-0.30;99.90;;;;;;5008344;28;19926;-88
2023/01/20 05:28:55;;;;;;;;;;;-0.20;99.90;;;;;;5002126;28;19922;-92
2023/01/20 05:31:43;;;;;;;;;;;-0.30;99.90;;;;;;5005611;28;19953;-87
2023/01/20 05:48:02;;;;;;;;;;;-0.30;99.90;;;;;;4944340;28;19934;-81
2023/01/20 05:50:38;;;;;;;;;;;-0.40;99.90;;;;;;4941484;29;19935;-82
2023/01/20 05:53:08;;;;;;;;;;;-0.40;99.90;;;;;;4961697;23;19926;-86
2023/01/20 06:01:07;;;;;;;;;;;-0.30;99.90;;;;;;3118210;26;20460;-81
2023/01/20 06:03:52;;;;;;;;;;;-0.40;99.90;;;;;;4978187;28;20282;-81
2023/01/20 06:06:31;;;;;;;;;;;-0.40;99.90;;;;;;4979627;28;19930;-82
2023/01/20 06:09:05;;;;;;;;;;;-0.40;99.90;;;;;;4952941;28;19985;-86
2023/01/20 06:11:50;;;;;;;;;;;-0.40;99.90;;;;;;4962333;28;19989;-88
2023/01/20 06:14:21;;;;;;;;;;;-0.40;99.90;;;;;;5092652;23;20455;-80
2023/01/20 06:16:57;;;;;;;;;;;-0.40;99.90;;;;;;4969694;28;19926;-84
2023/01/20 06:19:28;;;;;;;;;;;-0.40;99.90;;;;;;4959120;28;20357;-85
2023/01/20 06:21:58;;;;;;;;;;;-0.30;99.90;;;;;;4947863;28;19989;-85
2023/01/20 06:24:25;;;;;;;;;;;-0.40;99.90;;;;;;4947901;28;20376;-86
2023/01/20 06:26:59;;;;;;;;;;;-0.40;99.90;;;;;;4954257;28;20050;-82
2023/01/20 06:29:26;;;;;;;;;;;-0.40;99.90;;;;;;4947438;28;19976;-81
2023/01/20 06:31:54;;;;;;;;;;;-0.40;99.90;;;;;;4956492;28;19958;-81
2023/01/20 06:34:22;;;;;;;;;;;-0.40;99.90;;;;;;4952285;28;19927;-82
2023/01/20 06:36:49;;;;;;;;;;;-0.40;99.90;;;;;;4956955;28;19937;-84
2023/01/20 06:39:16;;;;;;;;;;;-0.30;99.90;;;;;;4968604;28;19981;-81
2023/01/20 06:41:48;;;;;;;;;;;-0.40;99.90;;;;;;4959640;28;20428;-83
2023/01/20 06:44:18;;;;;;;;;;;-0.30;99.90;;;;;;4956600;28;19930;-83
2023/01/20 06:46:46;;;;;;;;;;;-0.30;99.90;;;;;;4969466;28;19935;-82
2023/01/20 06:49:16;;;;;;;;;;;-0.40;99.90;;;;;;4956726;28;19972;-81
2023/01/20 06:51:48;;;;;;;;;;;-0.30;99.90;;;;;;4953602;28;19981;-83
2023/01/20 06:54:17;;;;;;;;;;;-0.40;99.90;;;;;;4969929;28;19926;-81
2023/01/20 06:56:48;;;;;;;;;;;-0.40;99.90;;;;;;4951897;28;20274;-81
2023/01/20 06:59:15;;;;;;;;;;;-0.40;99.90;;;;;;4951730;28;20371;-81
2023/01/20 07:01:47;;;;;;;;;;;-0.40;99.90;;;;;;4953072;28;20467;-82
2023/01/20 07:04:18;;;;;;;;;;;-0.40;99.90;;;;;;4950895;28;19981;-88
2023/01/20 07:06:50;;;;;;;;;;;-0.40;99.90;;;;;;4953169;28;20293;-82
2023/01/20 07:09:17;;;;;;;;;;;-0.40;99.90;;;;;;4955029;28;20490;-82
2023/01/20 07:11:44;;;;;;;;;;;-0.40;99.90;;;;;;4954948;28;19926;-88
2023/01/20 07:14:11;;;;;;;;;;;-0.40;99.90;;;;;;4954269;28;20089;-81
2023/01/20 07:16:44;;;;;;;;;;;-0.40;99.90;;;;;;4955806;28;20165;-86
2023/01/20 07:19:13;;;;;;;;;;;-0.40;99.90;;;;;;4949642;28;20432;-81
2023/01/20 07:21:43;;;;;;;;;;;-0.40;99.90;;;;;;4951030;28;19935;-85
2023/01/20 07:24:15;;;;;;;;;;;-0.40;99.90;;;;;;4950849;28;19927;-85
2023/01/20 07:26:44;;;;;;;;;;;-0.50;99.90;;;;;;4951455;28;19974;-82
2023/01/20 07:29:15;;;;;;;;;;;-0.50;99.90;;;;;;4952942;28;19935;-82
2023/01/20 07:31:43;;;;;;;;;;;-0.50;99.90;;;;;;4953612;28;19955;-81
2023/01/20 07:34:13;;;;;;;;;;;-0.40;99.90;;;;;;4965645;28;19940;-81
2023/01/20 07:36:47;;;;;;;;;;;-0.40;99.90;;;;;;4953401;28;19934;-84
2023/01/20 07:39:18;;;;;;;;;;;-0.40;99.90;;;;;;4953391;28;19930;-81
2023/01/20 07:41:47;;;;;;;;;;;-0.40;99.90;;;;;;4956883;28;19927;-89
2023/01/20 07:44:17;;;;;;;;;;;-0.40;99.90;;;;;;4952506;28;19935;-84
2023/01/20 07:46:44;;;;;;;;;;;-0.30;99.90;;;;;;4953915;28;19938;-82
2023/01/20 07:49:11;;;;;;;;;;;-0.40;99.90;;;;;;4953189;28;19933;-87
2023/01/20 07:51:39;;;;;;;;;;;-0.30;99.90;;;;;;4952307;28;19926;-84
2023/01/20 07:54:10;;;;;;;;;;;-0.40;99.90;;;;;;4951022;28;19958;-81
2023/01/20 07:56:37;;;;;;;;;;;-0.40;99.90;;;;;;4972060;28;19965;-82
2023/01/20 07:59:06;;;;;;;;;;;-0.40;99.90;;;;;;4954313;28;19950;-81
2023/01/20 08:01:36;;;;;;;;;;;-0.30;99.90;;;;;;4948776;28;20455;-82
2023/01/20 08:04:05;;;;;;;;;;;-0.30;99.90;;;;;;4949913;28;20476;-81
2023/01/20 08:06:33;;;;;;;;;;;-0.30;99.90;;;;;;4954256;28;19930;-82
2023/01/20 08:09:01;;;;;;;;;;;-0.30;99.90;;;;;;4968401;28;19927;-78
2023/01/20 08:11:32;;;;;;;;;;;-0.30;99.90;;;;;;4946514;28;19926;-81
2023/01/20 08:13:59;;;;;;;;;;;-0.40;99.90;;;;;;4957691;28;19930;-87
2023/01/20 08:16:29;;;;;;;;;;;-0.30;99.90;;;;;;4949481;28;19942;-81
2023/01/20 08:19:00;;;;;;;;;;;-0.30;99.90;;;;;;4967164;28;20005;-84
2023/01/20 08:21:32;;;;;;;;;;;-0.30;99.90;;;;;;4955257;28;19933;-81
2023/01/20 08:24:10;;;;;;;;;;;-0.30;99.90;;;;;;4954119;28;19933;-81
2023/01/20 08:26:38;;;;;;;;;;;-0.30;99.90;;;;;;4946577;28;19926;-84
2023/01/20 08:29:09;;;;;;;;;;;-0.30;99.90;;;;;;4956465;28;20033;-81
2023/01/20 08:31:37;;;;;;;;;;;-0.30;99.90;;;;;;4951713;28;19934;-81
2023/01/20 08:34:08;;;;;;;;;;;-0.30;99.90;;;;;;4964542;28;19965;-84
2023/01/20 08:36:36;;;;;;;;;;;-0.30;99.90;;;;;;4945708;28;20017;-81
2023/01/20 08:39:09;;;;;;;;;;;-0.30;99.90;;;;;;4943476;28;20003;-81
2023/01/20 08:41:42;;;;;;;;;;;-0.30;99.90;;;;;;4948571;28;19934;-79
2023/01/20 08:44:15;;;;;;;;;;;-0.30;99.90;;;;;;4945715;28;19993;-81
2023/01/20 08:46:42;;;;;;;;;;;-0.30;99.90;;;;;;4961234;28;20390;-82
2023/01/20 08:49:14;;;;;;;;;;;-0.30;99.90;;;;;;4957786;28;19927;-82
2023/01/20 08:51:43;;;;;;;;;;;-0.30;99.90;;;;;;4949276;28;19935;-86
2023/01/20 08:54:10;;;;;;;;;;;-0.20;99.90;;;;;;4949436;28;19958;-81
2023/01/20 08:56:37;;;;;;;;;;;-0.30;99.90;;;;;;4953475;28;19991;-83
2023/01/20 08:59:07;;;;;;;;;;;-0.30;99.90;;;;;;4950353;28;20373;-81
2023/01/20 09:01:36;;;;;;;;;;;-0.30;99.90;;;;;;4953452;28;20362;-81
2023/01/20 09:04:04;;;;;;;;;;;-0.20;99.90;;;;;;4948455;28;19941;-82
2023/01/20 09:06:31;;;;;;;;;;;-0.20;99.90;;;;;;4962441;28;19927;-82
2023/01/20 09:08:58;;;;;;;;;;;-0.20;99.90;;;;;;4951859;28;20460;-82
2023/01/20 09:11:26;;;;;;;;;;;-0.20;99.90;;;;;;4948062;28;19978;-81
2023/01/20 09:13:54;;;;;;;;;;;-0.20;99.90;;;;;;4965537;28;20409;-83
2023/01/20 09:16:25;;;;;;;;;;;-0.20;99.90;;;;;;4952630;28;19958;-86
2023/01/20 09:18:52;;;;;;;;;;;-0.20;99.90;;;;;;4952028;28;19927;-83
2023/01/20 09:21:23;;;;;;;;;;;-0.20;99.90;;;;;;4955823;28;20017;-83
2023/01/20 09:23:51;;;;;;;;;;;-0.20;99.90;;;;;;4952064;28;19934;-85
2023/01/20 09:26:19;;;;;;;;;;;-0.20;99.90;;;;;;4951393;28;19927;-81
2023/01/20 09:28:48;;;;;;;;;;;-0.20;99.90;;;;;;4946956;28;19974;-85
2023/01/20 09:31:19;;;;;;;;;;;-0.20;99.90;;;;;;4956750;28;19926;-82
2023/01/20 09:33:56;;;;;;;;;;;-0.20;99.90;;;;;;4954747;28;19927;-83
2023/01/20 09:36:26;;;;;;;;;;;-0.20;99.90;;;;;;4954401;28;19927;-80
2023/01/20 09:44:42;;;;;;;;;;;-0.20;99.90;;;;;;4955678;28;19974;-81
2023/01/20 09:47:21;;;;;;;;;;;-0.20;99.90;;;;;;4954637;28;19942;-83
2023/01/20 09:53:02;;;;;;;;;;;-0.10;99.90;;;;;;4954098;28;19926;-83
2023/01/20 09:55:41;;;;;;;;;;;-0.10;99.90;;;;;;4955304;28;20388;-81
2023/01/20 09:58:16;;;;;;;;;;;-0.10;99.90;;;;;;4954953;28;19934;-81
2023/01/20 10:00:47;;;;;;;;;;;-0.10;99.90;;;;;;4954991;28;19930;-82
2023/01/20 10:03:20;;;;;;;;;;;-0.10;99.90;;;;;;4958357;28;20408;-84
2023/01/20 10:05:54;;;;;;;;;;;-0.10;99.90;;;;;;4972576;28;19948;-82
2023/01/20 10:08:26;;;;;;;;;;;-0.10;99.90;;;;;;4953971;28;19926;-84
2023/01/20 10:11:04;;;;;;;;;;;-0.10;99.90;;;;;;4957238;28;19930;-88
2023/01/20 10:13:46;;;;;;;;;;;-0.10;99.90;;;;;;4954916;28;19934;-81
2023/01/20 10:16:25;;;;;;;;;;;-0.10;99.90;;;;;;4960189;28;19973;-81
2023/01/20 10:18:59;;;;;;;;;;;-0.10;99.90;;;;;;4971567;28;19926;-81
2023/01/20 10:21:36;;;;;;;;;;;0.00;99.90;;;;;;4971607;28;19926;-83
2023/01/20 10:24:11;;;;;;;;;;;0.00;99.90;;;;;;4957256;28;19948;-82
2023/01/20 10:26:45;;;;;;;;;;;0.00;99.90;;;;;;4958385;28;19973;-81
2023/01/20 10:29:33;;;;;;;;;;;0.00;99.90;;;;;;4959863;28;20392;-79
2023/01/20 10:32:01;;;;;;;;;;;0.00;99.90;;;;;;5143594;23;19957;-80
2023/01/20 10:34:34;;;;;;;;;;;0.00;99.90;;;;;;4953417;28;19935;-80
2023/01/20 10:37:05;;;;;;;;;;;0.00;99.90;;;;;;4952347;28;19914;-82
2023/01/20 10:39:37;;;;;;;;;;;0.00;99.90;;;;;;4969575;28;19946;-80
2023/01/20 10:42:05;;;;;;;;;;;0.00;99.90;;;;;;4976024;28;19933;-79
2023/01/20 10:44:33;;;;;;;;;;;0.10;99.90;;;;;;4971935;28;19922;-81
2023/01/20 10:47:14;;;;;;;;;;;0.10;99.90;;;;;;4974115;28;19927;-80
2023/01/20 10:50:02;;;;;;;;;;;0.10;99.90;;;;;;4969392;28;19910;-78
2023/01/20 10:52:37;;;;;;;;;;;0.10;99.90;;;;;;4965886;28;19936;-80
2023/01/20 10:55:09;;;;;;;;;;;0.10;99.90;;;;;;4972785;28;19915;-79
2023/01/20 10:57:37;;;;;;;;;;;0.10;99.90;;;;;;4968633;28;19922;-81
2023/01/20 11:00:07;;;;;;;;;;;0.10;99.90;;;;;;4974620;28;19922;-85
2023/01/20 11:02:36;;;;;;;;;;;0.10;99.90;;;;;;4966398;28;19927;-80
2023/01/20 11:05:11;;;;;;;;;;;0.10;99.90;;;;;;4970444;28;19946;-79
2023/01/20 11:07:40;;;;;;;;;;;0.00;99.90;;;;;;4971320;28;19910;-79
2023/01/20 11:10:13;;;;;;;;;;;0.10;99.90;;;;;;4974091;28;19926;-79
2023/01/20 11:12:41;;;;;;;;;;;0.00;99.90;;;;;;4971265;28;19950;-80
2023/01/20 11:15:16;;;;;;;;;;;0.10;99.90;;;;;;4965040;28;19957;-79
2023/01/20 11:17:43;;;;;;;;;;;0.10;99.90;;;;;;4970758;28;19927;-81
2023/01/20 11:23:48;;;;;;;;;;;0.10;99.90;;;;;;4951281;29;20304;-80
2023/01/20 11:26:22;;;;;;;;;;;0.10;99.90;;;;;;4935879;29;19935;-80
2023/01/20 11:28:52;;;;;;;;;;;0.10;99.90;;;;;;4946615;28;19931;-79
2023/01/20 11:31:21;;;;;;;;;;;0.10;99.90;;;;;;4942336;28;19930;-81
2023/01/20 11:34:00;;;;;;;;;;;0.10;99.90;;;;;;4951707;28;19930;-78
2023/01/20 11:36:29;;;;;;;;;;;0.20;99.90;;;;;;4948626;28;19962;-80
2023/01/20 11:38:57;;;;;;;;;;;0.20;99.90;;;;;;4946103;28;19930;-78
2023/01/20 11:41:27;;;;;;;;;;;0.20;99.90;;;;;;4945145;28;20274;-79
2023/01/20 11:43:55;;;;;;;;;;;0.20;99.90;;;;;;4952388;28;19931;-78
2023/01/20 11:46:24;;;;;;;;;;;0.20;99.90;;;;;;4929264;29;19942;-81
2023/01/20 11:48:51;;;;;;;;;;;0.20;99.90;;;;;;4948699;28;20018;-83
2023/01/20 11:51:24;;;;;;;;;;;0.20;99.90;;;;;;4952806;28;19934;-81
2023/01/20 11:53:50;;;;;;;;;;;0.20;99.90;;;;;;4951370;28;19962;-80
2023/01/20 11:56:22;;;;;;;;;;;0.20;99.90;;;;;;4945491;28;19927;-80
2023/01/20 11:58:51;;;;;;;;;;;0.20;99.90;;;;;;4955955;28;19927;-80
2023/01/20 12:01:24;;;;;;;;;;;0.30;99.90;;;;;;4947965;28;19974;-78
2023/01/20 12:04:06;;;;;;;;;;;0.20;99.90;;;;;;4948250;28;19934;-80
2023/01/20 12:06:34;;;;;;;;;;;0.20;99.90;;;;;;4954200;28;19926;-80
2023/01/20 12:09:04;;;;;;;;;;;0.30;99.90;;;;;;4952087;28;19926;-78
2023/01/20 12:11:41;;;;;;;;;;;0.30;99.90;;;;;;4946719;28;19970;-80
2023/01/20 12:14:29;;;;;;;;;;;0.20;99.90;;;;;;4934680;29;20057;-79
2023/01/20 12:17:13;;;;;;;;;;;;;;;;;;;;;
2023/01/20 12:20:03;;;;;;;;;;;0.30;99.90;;;;;;4954523;28;20117;-80
2023/01/20 12:22:37;;;;;;;;;;;0.30;99.90;;;;;;4948110;28;19930;-79
2023/01/20 12:25:15;;;;;;;;;;;0.30;99.90;;;;;;4938108;28;19935;-80
2023/01/20 12:28:00;;;;;;;;;;;0.30;99.90;;;;;;4938623;29;19927;-80
2023/01/20 12:30:43;;;;;;;;;;;0.30;99.90;;;;;;4957973;28;19933;-83
2023/01/20 12:33:22;;;;;;;;;;;0.30;99.90;;;;;;4953904;28;19970;-80
2023/01/20 12:36:09;;;;;;;;;;;0.30;99.90;;;;;;4958262;28;20365;-79
2023/01/20 12:38:53;;;;;;;;;;;0.30;99.90;;;;;;4944159;29;19926;-81
2023/01/20 12:41:35;;;;;;;;;;;0.30;99.90;;;;;;4934164;29;19997;-82
2023/01/20 12:44:37;;;;;;;;;;;;;;;;;;;;;
2023/01/20 12:47:11;;;;;;;;;;;0.30;99.90;;;;;;4947219;28;19933;-85
2023/01/20 12:50:07;;;;;;;;;;;0.40;99.90;;;;;;4953593;28;19935;-81
2023/01/20 12:52:57;;;;;;;;;;;0.40;99.90;;;;;;4949407;28;19927;-80
2023/01/20 12:55:37;;;;;;;;;;;0.30;99.90;;;;;;4949623;28;19934;-83
2023/01/20 12:58:25;;;;;;;;;;;0.40;99.90;;;;;;4940607;29;20468;-80
2023/01/20 13:01:14;;;;;;;;;;;0.30;99.90;;;;;;4952158;28;19926;-79
2023/01/20 13:04:02;;;;;;;;;;;0.40;99.90;;;;;;4941424;28;20077;-79
2023/01/20 13:06:44;;;;;;;;;;;0.40;99.90;;;;;;4946686;28;20377;-78
2023/01/20 13:09:20;;;;;;;;;;;0.40;99.90;;;;;;4920562;28;19927;-78
2023/01/20 13:11:55;;;;;;;;;;;0.40;99.90;;;;;;4948991;28;19930;-79
2023/01/20 13:14:25;;;;;;;;;;;0.40;99.90;;;;;;4944776;28;19989;-80
2023/01/20 13:16:56;;;;;;;;;;;0.40;99.90;;;;;;4950995;28;20021;-81
2023/01/20 13:19:27;;;;;;;;;;;0.40;99.90;;;;;;4948265;28;20626;-79
2023/01/20 13:21:55;;;;;;;;;;;0.40;99.90;;;;;;4955352;28;20026;-80
2023/01/20 13:24:28;;;;;;;;;;;0.50;99.90;;;;;;4956019;28;20002;-78
2023/01/20 13:26:56;;;;;;;;;;;0.50;99.90;;;;;;4931319;28;19949;-78
2023/01/20 13:29:40;;;;;;;;;;;0.50;99.90;;;;;;4938870;28;19934;-78
2023/01/20 13:32:25;;;;;;;;;;;0.50;99.90;;;;;;4946319;28;19927;-78
2023/01/20 13:34:52;;;;;;;;;;;0.50;99.90;;;;;;4945907;28;19957;-78
2023/01/20 13:37:27;;;;;;;;;;;0.50;99.90;;;;;;4942405;28;20412;-79
2023/01/20 13:39:56;;;;;;;;;;;0.50;99.90;;;;;;4955962;28;20022;-79
2023/01/20 13:42:28;;;;;;;;;;;0.50;99.90;;;;;;4936167;28;19926;-79
2023/01/20 13:45:13;;;;;;;;;;;0.50;99.90;;;;;;4948402;28;19927;-78
2023/01/20 13:48:01;;;;;;;;;;;0.50;99.90;;;;;;4939779;28;19937;-82
2023/01/20 13:50:30;;;;;;;;;;;0.60;99.90;;;;;;4937434;28;19930;-78
2023/01/20 13:53:05;;;;;;;;;;;0.50;99.90;;;;;;4942180;28;20009;-78
2023/01/20 13:55:47;;;;;;;;;;;0.60;99.90;;;;;;4947061;28;20231;-78
2023/01/20 13:58:15;;;;;;;;;;;0.60;99.90;;;;;;4945023;28;19981;-78
2023/01/20 14:00:43;;;;;;;;;;;0.60;99.90;;;;;;4948243;28;19930;-78
2023/01/20 14:03:20;;;;;;;;;;;0.60;99.90;;;;;;4948063;28;19926;-77
2023/01/20 14:05:48;;;;;;;;;;;0.60;99.90;;;;;;4932762;28;20368;-78
2023/01/20 14:08:15;;;;;;;;;;;0.60;99.90;;;;;;4942863;28;19966;-79
2023/01/20 14:10:43;;;;;;;;;;;0.60;99.90;;;;;;4945444;28;19926;-80
2023/01/20 14:13:10;;;;;;;;;;;0.60;99.90;;;;;;4949568;28;20031;-79
2023/01/20 14:15:39;;;;;;;;;;;0.60;99.90;;;;;;4939869;28;19982;-79
2023/01/20 14:24:43;;;;;;;;;;;0.70;99.90;;;;;;4962589;28;19938;-80
2023/01/20 14:27:27;;;;;;;;;;;0.70;99.90;;;;;;4940598;28;19926;-81
2023/01/20 14:30:17;;;;;;;;;;;0.70;99.90;;;;;;4960885;28;19927;-80
2023/01/20 14:32:56;;;;;;;;;;;0.70;99.90;;;;;;4943048;29;19927;-80
2023/01/20 14:35:43;;;;;;;;;;;0.60;99.90;;;;;;4960810;28;19930;-81
2023/01/20 14:38:24;;;;;;;;;;;0.70;99.90;;;;;;4942067;29;20025;-81
2023/01/20 14:41:13;;;;;;;;;;;0.70;99.90;;;;;;4942956;29;19927;-81
2023/01/20 14:43:52;;;;;;;;;;;0.70;99.90;;;;;;4959369;28;19927;-80
2023/01/20 14:49:16;;;;;;;;;;;0.70;99.90;;;;;;4945826;28;19932;-81
2023/01/20 14:51:55;;;;;;;;;;;0.70;99.90;;;;;;4954492;29;19984;-81
2023/01/20 14:54:48;;;;;;;;;;;0.70;99.90;;;;;;4942738;29;20305;-80
2023/01/20 14:57:25;;;;;;;;;;;0.70;99.90;;;;;;4950004;28;19937;-78
2023/01/20 15:00:15;;;;;;;;;;;0.70;99.90;;;;;;4948081;28;19927;-83
2023/01/20 15:02:47;;;;;;;;;;;0.80;99.90;;;;;;4946420;28;20456;-79
2023/01/20 15:05:26;;;;;;;;;;;0.70;99.90;;;;;;4953063;28;19938;-78
2023/01/20 15:08:14;;;;;;;;;;;0.80;99.90;;;;;;4951834;28;19926;-80
2023/01/20 15:10:46;;;;;;;;;;;0.80;99.90;;;;;;4952305;28;19930;-80
2023/01/20 15:16:31;;;;;;;;;;;0.80;99.90;;;;;;4936373;29;19995;-80
2023/01/20 15:19:34;;;;;;;;;;;0.80;99.90;;;;;;4955171;28;19927;-80
2023/01/20 15:22:25;;;;;;;;;;;0.80;99.90;;;;;;4909130;29;19935;-80
2023/01/20 15:25:03;;;;;;;;;;;0.80;99.90;;;;;;4906500;29;19931;-80
2023/01/20 15:27:39;;;;;;;;;;;0.90;99.90;;;;;;4937475;28;19933;-78
2023/01/20 15:30:17;;;;;;;;;;;0.90;99.90;;;;;;4943145;28;19927;-79
2023/01/20 15:32:47;;;;;;;;;;;0.90;99.90;;;;;;4947404;28;19926;-78
2023/01/20 15:35:15;;;;;;;;;;;1.00;99.90;;;;;;4954940;28;19969;-80
2023/01/20 15:37:43;;;;;;;;;;;1.00;99.90;;;;;;4961978;28;19994;-84
2023/01/20 15:40:16;;;;;;;;;;;1.00;99.90;;;;;;4957020;28;19940;-79
2023/01/20 15:42:43;;;;;;;;;;;1.00;99.90;;;;;;4941769;28;20072;-84
2023/01/20 15:45:12;;;;;;;;;;;1.00;99.90;;;;;;4948736;28;19940;-78
2023/01/20 15:47:39;;;;;;;;;;;1.00;99.90;;;;;;4951333;28;19993;-77
2023/01/20 15:50:13;;;;;;;;;;;1.00;99.90;;;;;;4943259;28;20005;-78
2023/01/20 15:52:43;;;;;;;;;;;1.00;99.90;;;;;;4940998;28;19983;-79
2023/01/20 15:55:19;;;;;;;;;;;1.00;99.90;;;;;;4943031;28;19934;-80
2023/01/20 15:57:50;;;;;;;;;;;1.00;99.90;;;;;;4953146;28;19927;-81
2023/01/20 16:00:23;;;;;;;;;;;1.00;99.90;;;;;;4951267;28;19926;-79
2023/01/20 16:02:50;;;;;;;;;;;1.00;99.90;;;;;;4946966;28;19941;-79
2023/01/20 16:05:17;;;;;;;;;;;1.00;99.90;;;;;;4941896;28;20836;-75
2023/01/20 16:07:45;;;;;;;;;;;1.00;99.90;;;;;;4938415;28;19926;-77
2023/01/20 16:10:16;;;;;;;;;;;1.00;99.90;;;;;;4943396;28;19989;-76
2023/01/20 16:12:44;;;;;;;;;;;1.10;99.90;;;;;;4934248;28;19931;-76
2023/01/20 16:15:14;;;;;;;;;;;1.10;99.90;;;;;;4947199;28;20419;-76
2023/01/20 16:17:43;;;;;;;;;;;1.10;99.90;;;;;;4923490;28;19958;-76
2023/01/20 16:20:18;;;;;;;;;;;1.00;99.90;;;;;;4944301;28;20089;-76
2023/01/20 16:22:45;;;;;;;;;;;1.00;99.90;;;;;;4941763;28;19935;-76
2023/01/20 16:25:11;;;;;;;;;;;1.10;99.90;;;;;;4939373;28;19966;-76
2023/01/20 16:27:40;;;;;;;;;;;1.00;99.90;;;;;;4942746;28;19989;-76
2023/01/20 16:30:07;;;;;;;;;;;1.00;99.90;;;;;;4937915;28;20042;-76
2023/01/20 16:32:34;;;;;;;;;;;1.00;99.90;;;;;;4941504;28;20424;-76
2023/01/20 16:35:01;;;;;;;;;;;1.00;99.90;;;;;;4939132;28;20029;-76
2023/01/20 16:37:29;;;;;;;;;;;1.00;99.90;;;;;;4939372;28;20456;-76
2023/01/20 16:39:56;;;;;;;;;;;1.00;99.90;;;;;;4937836;28;20778;-76
2023/01/20 16:42:23;;;;;;;;;;;1.00;99.90;;;;;;4943378;28;19926;-76
2023/01/20 16:44:52;;;;;;;;;;;1.00;99.90;;;;;;4942132;28;19937;-76
2023/01/20 16:47:19;;;;;;;;;;;1.00;99.90;;;;;;4942265;28;19926;-78
2023/01/20 16:49:46;;;;;;;;;;;1.00;99.90;;;;;;4941349;28;20060;-76
2023/01/20 16:52:14;;;;;;;;;;;1.00;99.90;;;;;;4925415;28;20001;-76
2023/01/20 16:54:42;;;;;;;;;;;1.00;99.90;;;;;;4939948;28;19942;-76
2023/01/20 16:57:09;;;;;;;;;;;1.00;99.90;;;;;;4935824;28;19934;-76
2023/01/20 16:59:36;;;;;;;;;;;1.00;99.90;;;;;;4941990;28;19957;-76
2023/01/20 17:02:05;;;;;;;;;;;1.00;99.90;;;;;;4936095;28;19942;-80
2023/01/20 17:04:34;;;;;;;;;;;1.00;99.90;;;;;;4947515;28;20181;-76
2023/01/20 17:07:01;;;;;;;;;;;1.00;99.90;;;;;;4940419;28;19974;-78
2023/01/20 17:09:29;;;;;;;;;;;1.00;99.90;;;;;;4940707;28;20338;-78
2023/01/20 17:11:56;;;;;;;;;;;1.00;99.90;;;;;;4933042;28;19984;-78
2023/01/20 17:14:23;;;;;;;;;;;1.00;99.90;;;;;;4941496;28;20353;-78
2023/01/20 17:16:50;;;;;;;;;;;1.00;99.90;;;;;;4946450;28;19935;-80
2023/01/20 17:19:18;;;;;;;;;;;1.00;99.90;;;;;;4932051;28;19942;-78
2023/01/20 17:21:57;;;;;;;;;;;1.00;99.90;;;;;;4947949;28;19932;-80
2023/01/20 17:24:25;;;;;;;;;;;1.00;99.90;;;;;;4948321;28;19927;-79
2023/01/20 17:26:54;;;;;;;;;;;1.00;99.90;;;;;;4944324;28;20433;-78
2023/01/20 17:29:21;;;;;;;;;;;1.00;99.90;;;;;;4948515;28;20379;-81
2023/01/20 17:31:48;;;;;;;;;;;1.00;99.90;;;;;;4937567;28;19953;-78
2023/01/20 17:34:15;;;;;;;;;;;1.00;99.90;;;;;;4938539;28;20013;-81
2023/01/20 17:36:46;;;;;;;;;;;1.00;99.90;;;;;;4938784;28;20185;-78
2023/01/20 17:39:14;;;;;;;;;;;1.00;99.90;;;;;;4947043;28;20362;-78
2023/01/20 17:41:48;;;;;;;;;;;1.00;99.90;;;;;;4941382;28;20400;-78
2023/01/20 17:44:15;;;;;;;;;;;1.00;99.90;;;;;;4946504;28;19949;-78
2023/01/20 17:46:48;;;;;;;;;;;1.00;99.90;;;;;;4942465;28;19989;-78
2023/01/20 17:49:15;;;;;;;;;;;1.00;99.90;;;;;;4942176;28;19930;-78
2023/01/20 17:51:47;;;;;;;;;;;1.00;99.90;;;;;;4950730;28;20436;-77
2023/01/20 17:54:14;;;;;;;;;;;1.00;99.90;;;;;;4947335;28;20385;-78
2023/01/20 17:56:50;;;;;;;;;;;1.00;99.90;;;;;;4929277;28;19927;-78
2023/01/20 17:59:22;;;;;;;;;;;1.00;99.90;;;;;;4944917;28;20396;-78
2023/01/20 18:01:53;;;;;;;;;;;1.00;99.90;;;;;;4947146;28;20028;-77
2023/01/20 18:04:24;;;;;;;;;;;1.00;99.90;;;;;;4935710;28;19935;-78
2023/01/20 18:06:56;;;;;;;;;;;1.00;99.90;;;;;;4936138;28;20736;-78
2023/01/20 18:09:27;;;;;;;;;;;0.90;99.90;;;;;;4935856;28;19962;-78
2023/01/20 18:11:54;;;;;;;;;;;1.00;99.90;;;;;;4954965;28;19938;-78
2023/01/20 18:14:24;;;;;;;;;;;1.00;99.90;;;;;;4947589;28;19935;-78
2023/01/20 18:16:53;;;;;;;;;;;0.90;99.90;;;;;;4946646;28;19934;-78
2023/01/20 18:19:20;;;;;;;;;;;0.90;99.90;;;;;;4944445;28;19926;-79
2023/01/20 18:21:46;;;;;;;;;;;0.90;99.90;;;;;;4926829;28;20629;-79
2023/01/20 18:24:15;;;;;;;;;;;0.90;99.90;;;;;;4955182;28;19926;-76
2023/01/20 18:26:42;;;;;;;;;;;0.90;99.90;;;;;;4936231;28;20467;-76
2023/01/20 18:29:12;;;;;;;;;;;0.90;99.90;;;;;;4945235;28;19934;-76
2023/01/20 18:31:38;;;;;;;;;;;0.90;99.90;;;;;;4940318;28;19981;-77
2023/01/20 18:34:10;;;;;;;;;;;0.90;99.90;;;;;;4952246;28;19978;-76
2023/01/20 18:36:40;;;;;;;;;;;0.90;99.90;;;;;;4949711;28;19950;-76
2023/01/20 18:39:08;;;;;;;;;;;0.90;99.90;;;;;;4951402;28;19930;-76
2023/01/20 18:41:39;;;;;;;;;;;0.90;99.90;;;;;;4942956;28;19930;-76
2023/01/20 18:44:07;;;;;;;;;;;0.90;99.90;;;;;;4950321;28;19927;-77
2023/01/20 18:46:38;;;;;;;;;;;0.90;99.90;;;;;;4956524;28;19958;-77
2023/01/20 18:49:05;;;;;;;;;;;0.90;99.90;;;;;;4944624;28;19998;-76
2023/01/20 18:51:33;;;;;;;;;;;0.80;99.90;;;;;;4950886;28;19970;-76
2023/01/20 18:54:03;;;;;;;;;;;0.90;99.90;;;;;;4952254;28;19926;-77
2023/01/20 18:56:32;;;;;;;;;;;0.80;99.90;;;;;;4954131;28;20411;-77
2023/01/20 18:59:02;;;;;;;;;;;0.80;99.90;;;;;;4951160;28;19934;-77
2023/01/20 19:01:30;;;;;;;;;;;0.80;99.90;;;;;;4951293;28;19927;-77
2023/01/20 19:03:58;;;;;;;;;;;0.80;99.90;;;;;;4956817;28;20361;-77
2023/01/20 19:06:25;;;;;;;;;;;0.80;99.90;;;;;;4952627;28;20443;-76
2023/01/20 19:08:52;;;;;;;;;;;0.80;99.90;;;;;;4951897;28;19942;-76
2023/01/20 19:11:20;;;;;;;;;;;0.80;99.90;;;;;;4937573;29;19966;-76
2023/01/20 19:13:48;;;;;;;;;;;0.80;99.90;;;;;;4954722;28;20312;-77
2023/01/20 19:16:17;;;;;;;;;;;0.80;99.90;;;;;;4946218;28;19918;-76
2023/01/20 19:18:45;;;;;;;;;;;0.80;99.90;;;;;;4930308;28;19927;-79
2023/01/20 19:21:13;;;;;;;;;;;0.80;99.90;;;;;;4939415;28;20329;-78
2023/01/20 19:23:40;;;;;;;;;;;0.80;99.90;;;;;;4951994;28;19927;-78
2023/01/20 19:26:09;;;;;;;;;;;0.70;99.90;;;;;;4949180;28;19926;-79
2023/01/20 19:28:36;;;;;;;;;;;0.70;99.90;;;;;;4950830;28;19926;-78
2023/01/20 19:31:04;;;;;;;;;;;0.70;99.90;;;;;;4935030;28;19935;-78
2023/01/20 19:33:32;;;;;;;;;;;0.70;99.90;;;;;;4931014;28;19926;-76
2023/01/20 19:36:00;;;;;;;;;;;0.70;99.90;;;;;;4944649;28;19935;-76
2023/01/20 19:38:27;;;;;;;;;;;0.70;99.90;;;;;;4942272;28;20005;-76
2023/01/20 19:40:54;;;;;;;;;;;0.70;99.90;;;;;;4928704;28;19926;-76
2023/01/20 19:43:22;;;;;;;;;;;0.70;99.90;;;;;;4933097;29;20004;-77
2023/01/20 19:45:51;;;;;;;;;;;0.70;99.90;;;;;;4946127;28;20196;-78
2023/01/20 19:48:21;;;;;;;;;;;0.70;99.90;;;;;;4948547;28;19927;-77
2023/01/20 19:50:49;;;;;;;;;;;0.60;99.90;;;;;;4949522;28;20286;-77
2023/01/20 19:53:16;;;;;;;;;;;0.60;99.90;;;;;;4943964;28;20328;-77
2023/01/20 19:55:43;;;;;;;;;;;0.60;99.90;;;;;;4945721;28;19938;-78
2023/01/20 19:58:12;;;;;;;;;;;0.60;99.90;;;;;;4949936;28;19981;-77
2023/01/20 20:00:39;;;;;;;;;;;0.60;99.90;;;;;;4945444;28;19926;-76
2023/01/20 20:03:07;;;;;;;;;;;0.60;99.90;;;;;;4946899;28;19926;-77
2023/01/20 20:05:39;;;;;;;;;;;0.60;99.90;;;;;;4946858;28;19930;-77
2023/01/20 20:08:12;;;;;;;;;;;0.60;99.90;;;;;;4950231;28;19926;-76
2023/01/20 20:10:41;;;;;;;;;;;0.60;99.90;;;;;;4946513;28;20021;-77
2023/01/20 20:13:11;;;;;;;;;;;0.50;99.90;;;;;;4948900;28;20003;-78
2023/01/20 20:15:37;;;;;;;;;;;0.60;99.90;;;;;;4947542;28;19927;-77
2023/01/20 20:18:09;;;;;;;;;;;0.60;99.90;;;;;;4946596;28;19926;-77
2023/01/20 20:20:36;;;;;;;;;;;0.50;99.90;;;;;;4938991;28;20704;-77
2023/01/20 20:23:03;;;;;;;;;;;0.50;99.90;;;;;;4953411;28;20005;-77
2023/01/20 20:25:31;;;;;;;;;;;0.50;99.90;;;;;;4942564;28;19930;-77
2023/01/20 20:27:58;;;;;;;;;;;0.50;99.90;;;;;;4948339;28;19934;-77
2023/01/20 20:30:25;;;;;;;;;;;0.50;99.90;;;;;;4926431;29;20367;-77
2023/01/20 20:32:52;;;;;;;;;;;0.50;99.90;;;;;;4948584;28;19951;-77
2023/01/20 20:35:19;;;;;;;;;;;0.50;99.90;;;;;;4951636;28;19961;-77